Time;durP1;ratioP1;P1;durP2;ratioP2;P2;SDS_P1;SDS_P2;PMS_P1;PMS_P2;Temp;Humidity;BMP_temperature;BMP_pressure;BME280_temperature;BME280_humidity;BME280_pressure;Samples;Min_cycle;Max_cycle;Signal;HPM_P1;HPM_P2
2023/10/01 00:01:40;;;;;;;3.45;1.75;;;13.50;99.90;;;;;;5045324;28;20025;-53
2023/10/01 00:04:07;;;;;;;7.03;1.95;;;13.50;99.90;;;;;;5046388;28;20025;-50
2023/10/01 00:06:34;;;;;;;6.45;2.33;;;13.50;99.90;;;;;;5029318;28;20037;-55
2023/10/01 00:09:06;;;;;;;5.25;2.08;;;13.50;99.90;;;;;;5045733;28;20025;-53
2023/10/01 00:11:39;;;;;;;5.75;1.83;;;13.50;99.90;;;;;;5045292;28;20456;-53
2023/10/01 00:14:08;;;;;;;4.88;2.35;;;13.50;99.90;;;;;;5027523;28;20058;-55
2023/10/01 00:16:37;;;;;;;4.25;2.22;;;13.50;99.90;;;;;;5044006;28;20039;-54
2023/10/01 00:19:04;;;;;;;4.78;2.72;;;13.50;99.90;;;;;;5046651;28;20025;-54
2023/10/01 00:21:29;;;;;;;3.80;2.03;;;13.50;99.90;;;;;;5046335;28;20095;-51
2023/10/01 00:23:55;;;;;;;3.70;1.90;;;13.50;99.90;;;;;;5046506;28;20448;-56
2023/10/01 00:26:21;;;;;;;4.43;2.13;;;13.50;99.90;;;;;;5045958;28;20444;-54
2023/10/01 00:28:49;;;;;;;4.88;2.65;;;13.40;99.90;;;;;;5045749;28;20113;-54
2023/10/01 00:31:16;;;;;;;4.80;2.05;;;13.50;99.90;;;;;;5040631;28;20025;-50
2023/10/01 00:33:42;;;;;;;5.97;2.22;;;13.50;99.90;;;;;;5045510;28;20044;-50
2023/10/01 00:36:08;;;;;;;3.95;2.20;;;13.50;99.90;;;;;;5027263;28;20433;-51
2023/10/01 00:38:33;;;;;;;4.05;2.20;;;13.50;99.90;;;;;;5046012;28;20060;-57
2023/10/01 00:40:59;;;;;;;2.47;1.95;;;13.50;99.90;;;;;;5044264;28;20555;-53
2023/10/01 00:43:25;;;;;;;5.95;2.00;;;13.40;99.90;;;;;;5042686;28;20396;-52
2023/10/01 00:45:52;;;;;;;3.55;1.65;;;13.40;99.90;;;;;;5045522;28;20036;-51
2023/10/01 00:48:22;;;;;;;3.08;1.48;;;13.40;99.90;;;;;;5045650;28;20105;-54
2023/10/01 00:50:48;;;;;;;2.10;1.80;;;13.40;99.90;;;;;;5027227;28;20033;-52
2023/10/01 00:53:13;;;;;;;3.72;1.67;;;13.40;99.90;;;;;;5045796;28;20443;-50
2023/10/01 00:55:39;;;;;;;4.43;1.83;;;13.40;99.90;;;;;;5045751;28;20029;-50
2023/10/01 00:58:05;;;;;;;2.03;1.40;;;13.40;99.90;;;;;;5044223;28;20074;-51
2023/10/01 01:00:30;;;;;;;5.07;1.85;;;13.40;99.90;;;;;;5040291;28;20052;-52
2023/10/01 01:03:41;;;;;;;5.88;1.80;;;13.40;99.90;;;;;;5043077;28;20062;-55
2023/10/01 01:05:57;;;;;;;3.55;1.42;;;13.40;99.90;;;;;;5033058;28;20044;-51
2023/10/01 01:08:28;;;;;;;2.65;1.67;;;13.40;99.90;;;;;;5044341;28;21453;-53
2023/10/01 01:10:53;;;;;;;4.82;2.00;;;13.40;99.90;;;;;;5044362;28;20029;-52
2023/10/01 01:13:23;;;;;;;5.20;1.70;;;13.40;99.90;;;;;;5043124;28;20021;-51
2023/10/01 01:15:51;;;;;;;3.42;1.70;;;13.40;99.90;;;;;;5044335;28;20606;-52
2023/10/01 01:18:20;;;;;;;3.72;1.88;;;13.40;99.90;;;;;;5044343;28;20029;-52
2023/10/01 01:20:47;;;;;;;4.95;1.90;;;13.40;99.90;;;;;;5041190;28;20024;-52
2023/10/01 01:23:16;;;;;;;1.52;1.30;;;13.40;99.90;;;;;;5044643;28;20543;-52
2023/10/01 01:25:43;;;;;;;3.85;1.75;;;13.40;99.90;;;;;;5042295;28;20025;-52
2023/10/01 01:28:12;;;;;;;5.32;1.77;;;13.40;99.90;;;;;;5041861;28;20095;-54
2023/10/01 01:30:42;;;;;;;2.78;1.80;;;13.40;99.90;;;;;;5044649;28;20137;-51
2023/10/01 01:33:09;;;;;;;3.33;1.75;;;13.40;99.90;;;;;;5044861;28;20043;-52
2023/10/01 01:35:35;;;;;;;3.90;1.52;;;13.40;99.90;;;;;;5039443;28;20496;-50
2023/10/01 01:38:04;;;;;;;2.83;1.20;;;13.40;99.90;;;;;;5043188;28;20044;-52
2023/10/01 01:40:36;;;;;;;4.80;2.20;;;13.40;99.90;;;;;;5043898;28;20025;-53
2023/10/01 01:43:15;;;;;;;7.65;2.20;;;13.40;99.90;;;;;;5045154;28;20413;-52
2023/10/01 01:45:44;;;;;;;4.22;1.80;;;13.40;99.90;;;;;;5044211;28;20447;-51
2023/10/01 01:48:22;;;;;;;7.28;1.70;;;13.40;99.90;;;;;;5044574;28;20109;-54
2023/10/01 01:50:54;;;;;;;2.53;1.48;;;13.40;99.90;;;;;;5041639;28;20110;-54
2023/10/01 01:53:20;;;;;;;4.88;1.63;;;13.40;99.90;;;;;;5044575;28;20028;-55
2023/10/01 01:55:47;;;;;;;2.05;1.20;;;13.40;99.90;;;;;;5044984;28;20389;-54
2023/10/01 01:58:15;;;;;;;2.08;1.58;;;13.40;99.90;;;;;;5042782;28;20049;-53
2023/10/01 02:03:32;;;;;;;4.25;1.65;;;13.40;99.90;;;;;;5044228;28;20486;-55
2023/10/01 02:05:58;;;;;;;3.53;1.77;;;13.40;99.90;;;;;;5044497;28;20554;-52
2023/10/01 02:08:24;;;;;;;4.28;1.58;;;13.40;99.90;;;;;;5044525;28;20028;-52
2023/10/01 02:10:56;;;;;;;5.45;1.77;;;13.40;99.90;;;;;;5044485;28;20078;-51
2023/10/01 02:13:25;;;;;;;4.97;2.42;;;13.40;99.90;;;;;;5044271;28;20060;-52
2023/10/01 02:15:52;;;;;;;5.13;2.22;;;13.40;99.90;;;;;;5010544;28;20025;-54
2023/10/01 02:18:18;;;;;;;2.55;1.60;;;13.40;99.90;;;;;;5024082;28;20029;-52
2023/10/01 02:20:56;;;;;;;5.93;1.95;;;13.50;99.90;;;;;;5043898;28;20031;-51
2023/10/01 02:23:27;;;;;;;6.90;2.50;;;13.40;99.90;;;;;;5043169;28;20036;-54
2023/10/01 02:25:53;;;;;;;3.63;2.33;;;13.40;99.90;;;;;;5044658;28;20056;-51
2023/10/01 02:28:19;;;;;;;5.05;2.20;;;13.40;99.90;;;;;;5043986;28;20419;-51
2023/10/01 02:30:44;;;;;;;3.70;1.83;;;13.40;99.90;;;;;;5040510;28;20025;-52
2023/10/01 02:33:17;;;;;;;3.80;1.88;;;13.40;99.90;;;;;;5043906;28;20118;-54
2023/10/01 02:35:49;;;;;;;3.83;1.70;;;13.40;99.90;;;;;;5043761;28;20029;-54
2023/10/01 02:41:02;;;;;;;4.82;2.30;;;13.40;99.90;;;;;;5042225;28;20044;-50
2023/10/01 02:43:34;;;;;;;8.05;2.30;;;13.40;99.90;;;;;;5043670;28;20033;-50
2023/10/01 02:46:07;;;;;;;3.80;2.53;;;13.40;99.90;;;;;;5041319;28;20028;-53
2023/10/01 02:48:34;;;;;;;5.75;2.35;;;13.40;99.90;;;;;;5042784;28;20021;-55
2023/10/01 02:51:15;;;;;;;4.90;2.00;;;13.40;99.90;;;;;;5044177;28;20103;-49
2023/10/01 02:54:01;;;;;;;4.22;2.60;;;13.50;99.90;;;;;;5043034;28;20040;-55
2023/10/01 02:56:33;;;;;;;5.90;2.50;;;13.40;99.90;;;;;;5042599;28;20086;-53
2023/10/01 02:59:08;;;;;;;5.10;2.58;;;13.50;99.90;;;;;;5046552;28;20059;-50
2023/10/01 03:01:36;;;;;;;4.88;2.30;;;13.50;99.90;;;;;;5047953;28;20056;-53
2023/10/01 03:04:13;;;;;;;5.40;2.60;;;13.50;99.90;;;;;;5047332;28;20033;-50
2023/10/01 03:06:57;;;;;;;4.70;2.72;;;13.50;99.90;;;;;;5046795;28;20028;-54
2023/10/01 03:09:34;;;;;;;4.57;2.63;;;13.50;99.90;;;;;;5043660;28;20041;-54
2023/10/01 03:15:10;;;;;;;4.63;3.03;;;13.40;99.90;;;;;;5047146;28;20032;-50
2023/10/01 03:17:39;;;;;;;5.80;2.53;;;13.50;99.90;;;;;;5042549;28;20477;-53
2023/10/01 03:22:51;;;;;;;5.78;3.47;;;13.50;99.90;;;;;;5045196;28;20025;-49
2023/10/01 03:25:28;;;;;;;8.98;3.47;;;13.50;99.90;;;;;;5046338;28;20104;-53
2023/10/01 03:27:58;;;;;;;6.65;3.28;;;13.50;99.90;;;;;;5045021;28;20072;-51
2023/10/01 03:30:31;;;;;;;5.40;3.40;;;13.50;99.90;;;;;;5047316;28;20049;-54
2023/10/01 03:33:07;;;;;;;5.82;3.53;;;13.60;99.90;;;;;;5046410;28;20055;-51
2023/10/01 03:35:34;;;;;;;7.95;3.85;;;13.60;99.90;;;;;;5046519;28;20464;-54
2023/10/01 03:38:09;;;;;;;6.85;3.97;;;13.60;99.90;;;;;;5027376;28;20029;-54
2023/10/01 03:43:19;;;;;;;8.57;3.95;;;13.60;99.90;;;;;;5046329;28;20086;-52
2023/10/01 03:45:54;;;;;;;5.93;3.90;;;13.60;99.90;;;;;;5046789;28;20029;-53
2023/10/01 03:48:20;;;;;;;6.15;4.15;;;13.60;99.90;;;;;;5047247;28;20033;-53
2023/10/01 03:50:47;;;;;;;8.20;3.92;;;13.60;99.90;;;;;;5046630;28;20021;-54
2023/10/01 03:53:12;;;;;;;4.57;4.00;;;13.50;99.90;;;;;;5047300;28;20475;-53
2023/10/01 03:55:40;;;;;;;7.55;4.60;;;13.60;99.90;;;;;;5046673;28;20041;-51
2023/10/01 04:00:34;;;;;;;5.35;4.50;;;13.60;99.90;;;;;;5046779;28;20128;-49
2023/10/01 04:03:03;;;;;;;9.43;4.80;;;13.60;99.90;;;;;;5047391;28;20029;-53
2023/10/01 04:05:31;;;;;;;11.55;4.90;;;13.60;99.90;;;;;;5045492;28;20033;-50
2023/10/01 04:07:59;;;;;;;7.22;4.53;;;13.60;99.90;;;;;;5048595;28;20082;-49
2023/10/01 04:12:54;;;;;;;8.75;4.22;;;13.50;99.90;;;;;;5045828;28;20037;-52
2023/10/01 04:15:27;;;;;;;6.75;3.90;;;13.50;99.90;;;;;;5047089;28;20666;-51
2023/10/01 04:18:19;;;;;;;5.00;3.88;;;13.50;99.90;;;;;;5043640;28;20120;-50
2023/10/01 04:20:49;;;;;;;5.07;4.00;;;13.50;99.90;;;;;;5045986;28;20108;-51
2023/10/01 04:23:31;;;;;;;9.27;5.00;;;13.50;99.90;;;;;;5042899;28;20032;-55
2023/10/01 04:26:04;;;;;;;8.30;4.90;;;13.50;99.90;;;;;;5044283;28;20025;-55
2023/10/01 04:28:35;;;;;;;5.90;4.88;;;13.50;99.90;;;;;;5045321;28;20033;-50
2023/10/01 04:31:09;;;;;;;9.80;4.72;;;13.60;99.90;;;;;;5046474;28;20033;-55
2023/10/01 04:33:36;;;;;;;9.55;6.07;;;13.50;99.90;;;;;;5045480;28;20029;-52
2023/10/01 04:36:04;;;;;;;8.93;6.25;;;13.50;99.90;;;;;;5043738;28;20401;-50
2023/10/01 04:38:32;;;;;;;8.98;5.07;;;13.50;99.90;;;;;;5045685;28;20074;-53
2023/10/01 04:40:58;;;;;;;7.03;4.93;;;13.50;99.90;;;;;;5045491;28;20021;-49
2023/10/01 04:43:26;;;;;;;9.90;5.38;;;13.50;99.90;;;;;;5043787;28;20025;-49
2023/10/01 04:45:52;;;;;;;8.43;5.13;;;13.50;99.90;;;;;;5046138;28;20459;-52
2023/10/01 04:48:22;;;;;;;9.20;5.45;;;13.50;99.90;;;;;;5046163;28;20025;-49
2023/10/01 04:50:55;;;;;;;10.13;5.65;;;13.50;99.90;;;;;;5045362;28;20579;-50
2023/10/01 04:53:22;;;;;;;8.60;5.70;;;13.50;99.90;;;;;;5046023;28;20091;-52
2023/10/01 04:56:05;;;;;;;9.82;5.97;;;13.50;99.90;;;;;;5046148;28;20017;-54
2023/10/01 04:58:36;;;;;;;8.48;5.00;;;13.50;99.90;;;;;;5045829;28;20506;-51
2023/10/01 05:01:05;;;;;;;7.97;5.40;;;13.40;99.90;;;;;;5045395;28;20017;-53
2023/10/01 05:03:40;;;;;;;8.27;5.78;;;13.50;99.90;;;;;;5045805;28;20619;-49
2023/10/01 05:06:13;;;;;;;9.23;6.30;;;13.50;99.90;;;;;;5045743;28;20516;-51
2023/10/01 05:08:42;;;;;;;9.27;5.43;;;13.50;99.90;;;;;;5045856;28;20029;-52
2023/10/01 05:11:11;;;;;;;8.98;5.78;;;13.50;99.90;;;;;;5045893;28;20104;-50
2023/10/01 05:13:39;;;;;;;10.80;5.93;;;13.40;99.90;;;;;;5045405;28;20083;-53
2023/10/01 05:16:12;;;;;;;10.90;6.60;;;13.50;99.90;;;;;;5041392;28;20021;-52
2023/10/01 05:18:43;;;;;;;9.02;5.30;;;13.50;99.90;;;;;;5043731;28;20488;-55
2023/10/01 05:21:12;;;;;;;12.20;6.45;;;13.50;99.90;;;;;;5045488;28;20695;-51
2023/10/01 05:23:41;;;;;;;12.98;6.20;;;13.50;99.90;;;;;;5041522;28;20025;-53
2023/10/01 05:26:08;;;;;;;11.93;6.75;;;13.50;99.90;;;;;;5045365;28;20040;-57
2023/10/01 05:28:36;;;;;;;9.90;6.00;;;13.50;99.90;;;;;;5043027;28;20029;-51
2023/10/01 05:31:08;;;;;;;12.18;6.95;;;13.50;99.90;;;;;;5044466;28;20393;-53
2023/10/01 05:33:38;;;;;;;12.88;7.78;;;13.50;99.90;;;;;;5044156;28;20037;-51
2023/10/01 05:36:04;;;;;;;10.38;6.68;;;13.50;99.90;;;;;;5044678;28;20029;-53
2023/10/01 05:38:34;;;;;;;9.90;6.15;;;13.50;99.90;;;;;;5044290;28;20054;-52
2023/10/01 05:41:13;;;;;;;7.75;6.15;;;13.50;99.90;;;;;;5042586;28;20076;-54
2023/10/01 05:43:43;;;;;;;9.82;6.50;;;13.50;99.90;;;;;;5043043;28;20389;-54
2023/10/01 05:46:10;;;;;;;9.57;6.50;;;13.50;99.90;;;;;;5043782;28;20452;-51
2023/10/01 05:48:39;;;;;;;10.65;7.38;;;13.50;99.90;;;;;;5044650;28;20448;-56
2023/10/01 05:51:18;;;;;;;13.23;7.95;;;13.50;99.90;;;;;;5043511;28;20025;-53
2023/10/01 05:53:52;;;;;;;12.38;6.72;;;13.60;99.90;;;;;;5044339;28;20020;-51
2023/10/01 05:56:17;;;;;;;8.88;6.75;;;13.50;99.90;;;;;;5043137;28;20009;-53
2023/10/01 05:58:43;;;;;;;12.13;7.45;;;13.60;99.90;;;;;;5044183;28;20314;-49
2023/10/01 06:01:16;;;;;;;10.60;7.32;;;13.60;99.90;;;;;;5044601;28;20412;-51
2023/10/01 06:03:44;;;;;;;10.00;6.90;;;13.60;99.90;;;;;;5044756;28;20049;-49
2023/10/01 06:06:25;;;;;;;8.63;6.43;;;13.60;99.90;;;;;;5066172;22;20017;-58
2023/10/01 06:09:01;;;;;;;9.52;6.50;;;13.60;99.90;;;;;;5042807;28;20025;-57
2023/10/01 06:14:36;;;;;;;;;;;13.60;99.90;;;;;;5042514;28;20059;-58
2023/10/01 06:17:00;;;;;;;11.65;6.50;;;13.60;99.90;;;;;;5041449;28;19909;-58
2023/10/01 06:19:27;;;;;;;13.48;7.88;;;13.60;99.90;;;;;;5042434;28;20528;-59
2023/10/01 06:21:53;;;;;;;12.73;7.78;;;13.60;99.90;;;;;;5043118;28;20065;-59
2023/10/01 06:24:21;;;;;;;12.57;7.22;;;13.60;99.90;;;;;;5043725;28;20079;-58
2023/10/01 06:26:47;;;;;;;9.55;7.07;;;13.60;99.90;;;;;;5022889;28;20057;-59
2023/10/01 06:29:14;;;;;;;11.82;6.70;;;13.70;99.90;;;;;;5025441;28;20446;-58
2023/10/01 06:31:48;;;;;;;12.20;7.53;;;13.70;99.90;;;;;;5042426;28;20043;-59
2023/10/01 06:34:21;;;;;;;9.15;6.57;;;13.70;99.90;;;;;;5025048;28;20033;-59
2023/10/01 06:36:50;;;;;;;10.02;8.55;;;13.70;99.90;;;;;;5028160;28;20444;-57
2023/10/01 06:39:19;;;;;;;12.93;8.63;;;13.70;99.90;;;;;;5045537;28;20024;-59
2023/10/01 06:41:45;;;;;;;12.75;8.15;;;13.70;99.90;;;;;;5047091;28;20025;-59
2023/10/01 06:44:14;;;;;;;13.50;8.85;;;13.80;99.90;;;;;;5046201;28;20033;-61
2023/10/01 06:46:40;;;;;;;12.43;8.40;;;13.80;99.90;;;;;;5028817;28;20503;-58
2023/10/01 06:49:08;;;;;;;12.25;8.20;;;13.80;99.90;;;;;;5047164;28;20048;-57
2023/10/01 06:51:43;;;;;;;10.93;7.38;;;13.80;99.90;;;;;;5045745;28;20029;-59
2023/10/01 06:54:10;;;;;;;9.10;7.47;;;13.80;99.90;;;;;;5046406;28;20025;-59
2023/10/01 06:56:38;;;;;;;11.43;8.02;;;13.90;99.90;;;;;;5046787;28;20096;-58
2023/10/01 07:01:34;;;;;;;12.05;8.70;;;14.00;99.90;;;;;;5044320;28;20044;-58
2023/10/01 07:04:05;;;;;;;11.52;8.30;;;14.00;99.90;;;;;;5027119;28;20029;-57
2023/10/01 07:06:36;;;;;;;12.30;7.57;;;14.00;99.90;;;;;;5046124;28;20400;-58
2023/10/01 07:11:56;;;;;;;12.82;8.80;;;14.10;99.90;;;;;;5045437;28;20318;-57
2023/10/01 07:14:44;;;;;;;12.98;8.18;;;14.10;99.90;;;;;;5045825;28;20037;-56
2023/10/01 07:17:14;;;;;;;11.43;7.50;;;14.20;99.90;;;;;;5028340;28;20403;-58
2023/10/01 07:19:43;;;;;;;12.82;8.13;;;14.20;99.90;;;;;;5046260;28;20025;-56
2023/10/01 07:22:09;;;;;;;13.18;7.32;;;14.20;99.90;;;;;;5046758;28;20021;-58
2023/10/01 07:24:36;;;;;;;10.45;7.40;;;14.30;99.90;;;;;;5028378;28;20039;-58
2023/10/01 07:27:06;;;;;;;12.05;7.07;;;14.30;99.90;;;;;;5046652;28;20087;-57
2023/10/01 07:29:39;;;;;;;10.27;8.40;;;14.40;99.90;;;;;;5043504;28;20526;-58
2023/10/01 07:32:12;;;;;;;10.73;7.47;;;14.40;99.90;;;;;;5045640;28;20507;-58
2023/10/01 07:34:45;;;;;;;11.50;7.75;;;14.40;99.90;;;;;;5044863;28;20112;-58
2023/10/01 07:37:23;;;;;;;9.50;7.10;;;14.40;99.90;;;;;;5028628;28;20029;-58
2023/10/01 07:39:56;;;;;;;12.27;7.57;;;14.50;99.90;;;;;;5044253;28;20029;-58
2023/10/01 07:42:23;;;;;;;13.52;8.00;;;14.50;99.90;;;;;;5044568;28;20033;-58
2023/10/01 07:44:49;;;;;;;12.63;7.53;;;14.60;99.90;;;;;;5044729;28;20076;-58
2023/10/01 07:47:28;;;;;;;13.35;7.85;;;14.60;99.90;;;;;;5026349;28;20032;-58
2023/10/01 07:49:56;;;;;;;12.82;8.18;;;14.70;99.90;;;;;;5046011;28;20063;-57
2023/10/01 07:52:23;;;;;;;11.88;7.85;;;14.80;99.90;;;;;;5045869;28;20024;-57
2023/10/01 07:54:49;;;;;;;9.07;6.78;;;14.80;99.90;;;;;;5042741;28;20053;-58
2023/10/01 07:57:26;;;;;;;12.02;7.15;;;14.90;99.90;;;;;;5046230;28;20017;-58
2023/10/01 07:59:53;;;;;;;10.18;7.72;;;15.00;99.90;;;;;;5046461;28;20017;-57
2023/10/01 08:07:15;;;;;;;12.23;7.35;;;15.10;99.90;;;;;;5043844;28;20068;-59
2023/10/01 08:09:51;;;;;;;14.77;8.20;;;15.10;99.90;;;;;;5045718;28;20043;-59
2023/10/01 08:12:28;;;;;;;12.20;6.38;;;15.10;99.90;;;;;;5044845;28;20021;-58
2023/10/01 08:15:29;;;;;;;12.35;7.75;;;15.10;99.90;;;;;;5045893;28;20155;-58
2023/10/01 08:17:55;;;;;;;13.45;7.82;;;15.20;99.90;;;;;;5045797;28;20013;-57
2023/10/01 08:20:21;;;;;;;13.93;7.20;;;15.20;99.90;;;;;;5045857;28;20021;-58
2023/10/01 08:25:42;;;;;;;11.00;6.25;;;15.30;99.90;;;;;;5043449;28;20661;-58
2023/10/01 08:28:26;;;;;;;12.45;7.25;;;15.40;99.90;;;;;;5045250;28;20048;-58
2023/10/01 08:31:01;;;;;;;10.48;7.10;;;15.50;99.90;;;;;;5027982;28;20021;-57
2023/10/01 08:33:42;;;;;;;9.47;6.87;;;15.50;99.90;;;;;;5045833;28;20056;-57
2023/10/01 08:36:13;;;;;;;9.02;6.70;;;15.60;99.90;;;;;;5028431;28;20263;-59
2023/10/01 08:38:47;;;;;;;11.35;7.70;;;15.60;99.90;;;;;;5045720;28;20240;-57
2023/10/01 08:41:35;;;;;;;11.40;7.55;;;15.60;99.90;;;;;;5046398;28;20424;-59
2023/10/01 08:44:09;;;;;;;9.02;6.03;;;15.60;99.90;;;;;;5045231;28;20021;-57
2023/10/01 08:46:39;;;;;;;13.43;7.53;;;15.70;99.90;;;;;;5045196;28;20135;-58
2023/10/01 08:49:23;;;;;;;8.90;6.50;;;15.70;99.90;;;;;;5045573;28;20017;-57
2023/10/01 08:51:52;;;;;;;11.52;6.97;;;15.70;99.90;;;;;;5041784;28;20020;-58
2023/10/01 08:54:25;;;;;;;12.02;6.28;;;15.70;99.90;;;;;;5045033;28;20035;-58
2023/10/01 08:56:52;;;;;;;10.00;6.57;;;15.70;99.90;;;;;;5044863;28;20029;-57
2023/10/01 08:59:24;;;;;;;10.45;6.18;;;15.70;99.90;;;;;;5044773;28;20021;-58
2023/10/01 09:01:55;;;;;;;9.50;5.70;;;15.80;99.90;;;;;;5045063;28;20023;-55
2023/10/01 09:07:10;;;;;;;9.48;5.95;;;15.90;99.90;;;;;;5045254;28;20243;-58
2023/10/01 09:09:51;;;;;;;11.38;6.47;;;16.00;99.90;;;;;;5044695;28;20033;-57
2023/10/01 09:12:18;;;;;;;7.15;5.60;;;16.00;99.90;;;;;;5027154;28;20021;-56
2023/10/01 09:14:46;;;;;;;7.18;5.38;;;16.00;99.90;;;;;;5026529;28;20029;-57
2023/10/01 09:17:24;;;;;;;8.32;5.90;;;16.10;99.90;;;;;;5043893;28;20045;-56
2023/10/01 09:19:51;;;;;;;9.77;5.43;;;16.20;99.90;;;;;;5044562;28;20044;-55
2023/10/01 09:25:19;;;;;;;7.53;5.10;;;16.30;99.90;;;;;;5044312;28;20355;-58
2023/10/01 09:28:19;;;;;;;;;;;16.40;99.90;;;;;;5045141;28;20028;-57
2023/10/01 09:31:03;;;;;;;7.68;4.60;;;16.40;99.90;;;;;;5024120;28;19904;-58
2023/10/01 09:33:31;;;;;;;8.77;5.25;;;16.50;99.90;;;;;;5025363;28;20031;-58
2023/10/01 09:36:01;;;;;;;8.52;4.93;;;16.50;99.90;;;;;;5044424;28;20060;-56
2023/10/01 09:38:29;;;;;;;9.23;5.00;;;16.60;99.90;;;;;;5044267;28;20100;-58
2023/10/01 09:40:56;;;;;;;9.70;5.07;;;16.60;99.90;;;;;;5043177;28;20028;-53
2023/10/01 09:43:27;;;;;;;7.50;4.63;;;16.70;99.90;;;;;;5044179;28;20025;-56
2023/10/01 09:45:53;;;;;;;7.15;4.60;;;16.80;99.90;;;;;;5025309;28;20029;-58
2023/10/01 09:48:30;;;;;;;8.00;4.55;;;16.80;99.90;;;;;;5024334;28;20074;-57
2023/10/01 09:51:16;;;;;;;7.22;4.32;;;16.80;99.90;;;;;;5044231;28;20047;-58
2023/10/01 09:53:56;;;;;;;9.37;5.43;;;16.90;99.90;;;;;;5041694;28;20029;-58
2023/10/01 09:56:26;;;;;;;11.93;5.28;;;17.00;99.90;;;;;;5043697;28;20021;-57
2023/10/01 09:59:03;;;;;;;8.30;5.35;;;16.90;99.90;;;;;;5026262;28;20396;-57
2023/10/01 10:01:33;;;;;;;9.82;5.97;;;16.90;99.90;;;;;;5024799;28;20017;-57
2023/10/01 10:04:03;;;;;;;9.32;6.22;;;16.90;99.90;;;;;;5043882;28;20112;-58
2023/10/01 10:06:30;;;;;;;7.47;5.15;;;16.90;99.90;;;;;;5043997;28;20036;-57
2023/10/01 10:09:04;;;;;;;10.45;6.05;;;16.90;99.90;;;;;;5042252;28;20564;-57
2023/10/01 10:11:37;;;;;;;9.38;5.55;;;16.90;99.90;;;;;;5044158;28;20039;-57
2023/10/01 10:14:28;;;;;;;8.90;6.00;;;16.90;99.90;;;;;;5044154;28;20032;-57
2023/10/01 10:16:56;;;;;;;14.57;5.93;;;16.90;99.90;;;;;;5031098;28;20033;-55
2023/10/01 10:19:22;;;;;;;12.27;6.50;;;16.90;99.90;;;;;;5043657;28;20029;-56
2023/10/01 10:24:28;;;;;;;9.32;6.03;;;16.90;99.90;;;;;;5041441;28;20043;-57
2023/10/01 10:26:59;;;;;;;9.63;6.60;;;16.90;99.90;;;;;;5043829;28;20017;-57
2023/10/01 10:29:56;;;;;;;8.43;5.40;;;17.00;99.90;;;;;;5043718;28;20037;-56
2023/10/01 10:32:24;;;;;;;10.20;6.00;;;17.20;99.90;;;;;;5042357;28;20025;-56
2023/10/01 10:35:05;;;;;;;8.00;5.75;;;17.20;99.90;;;;;;5043547;28;20133;-53
2023/10/01 10:37:36;;;;;;;9.25;5.30;;;17.30;99.90;;;;;;5043985;28;20071;-56
2023/10/01 10:42:42;;;;;;;8.05;4.88;;;17.30;99.90;;;;;;5044232;28;20021;-56
2023/10/01 10:45:23;;;;;;;9.25;4.82;;;17.40;99.90;;;;;;5043263;28;20029;-56
2023/10/01 10:48:02;;;;;;;10.80;5.32;;;17.40;99.90;;;;;;5025777;28;20032;-56
2023/10/01 10:50:50;;;;;;;10.70;5.07;;;17.50;99.90;;;;;;5042690;28;20158;-56
2023/10/01 10:53:27;;;;;;;9.75;4.50;;;17.50;99.90;;;;;;5042082;28;20100;-58
2023/10/01 10:55:53;;;;;;;11.90;4.82;;;17.60;99.90;;;;;;5023158;28;20087;-57
2023/10/01 10:58:20;;;;;;;8.65;4.25;;;17.60;99.90;;;;;;5025806;28;20048;-58
2023/10/01 11:00:47;;;;;;;7.68;4.20;;;17.60;99.90;;;;;;5043076;28;20497;-56
2023/10/01 11:03:16;;;;;;;7.90;4.32;;;17.50;99.90;;;;;;5041920;28;20021;-56
2023/10/01 11:05:52;;;;;;;6.63;3.45;;;17.60;99.90;;;;;;5043859;28;20231;-56
2023/10/01 11:08:28;;;;;;;9.05;4.28;;;17.70;99.90;;;;;;5042059;28;20111;-57
2023/10/01 11:10:55;;;;;;;8.65;4.43;;;17.80;99.90;;;;;;5043103;28;20040;-58
2023/10/01 11:13:37;;;;;;;8.93;3.90;;;17.90;99.90;;;;;;5043493;28;20444;-59
2023/10/01 11:16:14;;;;;;;8.93;3.42;;;18.00;99.90;;;;;;5041798;28;20028;-56
2023/10/01 11:18:47;;;;;;;5.50;3.45;;;18.10;99.90;;;;;;5043449;28;20031;-56
2023/10/01 11:21:20;;;;;;;6.93;3.03;;;18.30;99.90;;;;;;5045179;28;20021;-54
2023/10/01 11:23:53;;;;;;;7.03;3.00;;;18.30;99.90;;;;;;5047385;28;20097;-58
2023/10/01 11:26:29;;;;;;;5.10;2.53;;;18.30;99.90;;;;;;5045933;28;20524;-57
2023/10/01 11:29:00;;;;;;;7.53;3.45;;;18.40;99.90;;;;;;5043632;28;20032;-56
2023/10/01 11:31:31;;;;;;;10.13;3.20;;;18.40;99.90;;;;;;5046428;28;20031;-58
2023/10/01 11:34:04;;;;;;;6.68;3.85;;;18.50;99.90;;;;;;5046893;28;20112;-56
2023/10/01 11:36:37;;;;;;;7.38;3.50;;;18.60;99.90;;;;;;5046416;28;20549;-53
2023/10/01 11:39:03;;;;;;;6.95;3.42;;;18.50;99.90;;;;;;5044027;28;20591;-54
2023/10/01 11:41:42;;;;;;;5.38;3.55;;;18.50;99.90;;;;;;5045361;28;20025;-57
2023/10/01 11:44:21;;;;;;;7.65;3.80;;;18.60;99.90;;;;;;5046009;28;20028;-54
2023/10/01 11:46:57;;;;;;;6.63;3.40;;;18.50;99.90;;;;;;5046549;28;20017;-59
2023/10/01 11:49:34;;;;;;;8.57;3.92;;;18.50;99.90;;;;;;5045539;28;20548;-55
2023/10/01 11:52:21;;;;;;;7.85;3.45;;;18.40;99.90;;;;;;5046022;28;20047;-57
2023/10/01 11:54:53;;;;;;;8.18;3.90;;;18.30;99.90;;;;;;5046877;28;20080;-58
2023/10/01 11:57:23;;;;;;;10.90;4.40;;;18.30;99.90;;;;;;5042302;28;20025;-55
2023/10/01 11:59:56;;;;;;;9.68;4.80;;;18.10;99.90;;;;;;5046265;28;20029;-56
2023/10/01 12:02:32;;;;;;;9.93;4.80;;;18.00;99.90;;;;;;5046201;28;20025;-57
2023/10/01 12:05:06;;;;;;;8.52;4.28;;;17.80;99.90;;;;;;5027866;28;20032;-54
2023/10/01 12:07:45;;;;;;;9.57;4.90;;;17.70;99.90;;;;;;5052527;22;20150;-81
2023/10/01 12:10:31;;;;;;;11.77;5.38;;;17.70;99.90;;;;;;5046967;28;20024;-80
2023/10/01 12:12:58;;;;;;;9.40;5.40;;;17.60;99.90;;;;;;5027657;28;20025;-81
2023/10/01 12:15:37;;;;;;;12.80;5.72;;;17.40;99.90;;;;;;5030511;28;20100;-81
2023/10/01 12:18:08;;;;;;;9.52;5.63;;;17.40;99.90;;;;;;5047875;28;20009;-80
2023/10/01 12:20:39;;;;;;;8.75;5.50;;;17.30;99.90;;;;;;5045588;28;20025;-83
2023/10/01 12:23:12;;;;;;;9.07;6.05;;;17.20;99.90;;;;;;5031697;28;20618;-81
2023/10/01 12:25:50;;;;;;;9.05;5.90;;;17.20;99.90;;;;;;5052059;28;20039;-82
2023/10/01 12:28:18;;;;;;;8.77;5.47;;;17.10;99.90;;;;;;5050041;28;20013;-85
2023/10/01 12:30:44;;;;;;;10.13;6.15;;;17.00;99.90;;;;;;5051377;28;20092;-83
2023/10/01 12:33:10;;;;;;;11.55;5.97;;;16.90;99.90;;;;;;5052169;28;20033;-83
2023/10/01 12:35:36;;;;;;;10.35;5.95;;;16.80;99.90;;;;;;5033463;28;20009;-85
2023/10/01 12:40:49;;;;;;;10.73;6.10;;;16.60;99.90;;;;;;5045948;28;20017;-85
2023/10/01 12:45:59;;;;;;;12.13;7.15;;;16.40;99.90;;;;;;5048521;28;20039;-87
2023/10/01 12:48:24;;;;;;;13.77;7.82;;;16.30;99.90;;;;;;5049034;28;20029;-87
2023/10/01 12:51:08;;;;;;;11.77;6.80;;;16.30;99.90;;;;;;5031814;28;20021;-87
2023/10/01 12:53:47;;;;;;;10.57;7.93;;;16.20;99.90;;;;;;5029411;28;20464;-87
2023/10/01 12:56:14;;;;;;;13.55;8.20;;;16.30;99.90;;;;;;5032646;28;20456;-87
2023/10/01 12:58:39;;;;;;;10.70;7.57;;;16.30;99.90;;;;;;5059960;28;20064;-85
2023/10/01 13:03:54;;;;;;;9.98;6.93;;;16.30;99.90;;;;;;5049776;28;20039;-86
2023/10/01 13:06:19;;;;;;;11.43;7.00;;;16.40;99.90;;;;;;5052600;28;20025;-84
2023/10/01 13:08:45;;;;;;;10.38;7.15;;;16.40;99.90;;;;;;5030141;28;20021;-86
2023/10/01 13:13:55;;;;;;;9.95;6.75;;;16.50;99.90;;;;;;5046879;28;20112;-85
2023/10/01 13:16:21;;;;;;;9.00;6.13;;;16.50;99.90;;;;;;5031395;28;20104;-85
2023/10/01 13:18:46;;;;;;;11.55;8.73;;;16.50;99.90;;;;;;5032097;28;20021;-85
2023/10/01 13:21:12;;;;;;;9.77;7.40;;;16.50;99.90;;;;;;5029801;28;20032;-87
2023/10/01 13:23:44;;;;;;;9.73;6.57;;;16.50;99.90;;;;;;5031201;28;20017;-86
2023/10/01 13:26:24;;;;;;;8.55;5.68;;;16.50;99.90;;;;;;5046281;28;20432;-85
2023/10/01 13:28:50;;;;;;;6.60;5.25;;;16.50;99.90;;;;;;5035038;28;20021;-85
2023/10/01 13:34:06;;;;;;;6.80;5.22;;;16.40;99.90;;;;;;5049901;28;20035;-85
2023/10/01 13:36:47;;;;;;;5.82;4.97;;;16.30;99.90;;;;;;5049318;28;20021;-85
2023/10/01 14:08:46;;;;;;;9.32;7.22;;;16.00;99.90;;;;;;5043551;28;20082;-85
2023/10/01 14:11:15;;;;;;;12.45;8.52;;;16.00;99.90;;;;;;5025547;28;20435;-85
2023/10/01 14:13:44;;;;;;;10.93;7.70;;;16.00;99.90;;;;;;5025160;28;20125;-84
2023/10/01 14:16:17;;;;;;;10.95;7.95;;;16.00;99.90;;;;;;5027441;28;20134;-85
2023/10/01 14:21:28;;;;;;;8.63;7.82;;;15.90;99.90;;;;;;5046310;28;20499;-85
2023/10/01 14:24:21;;;;;;;15.18;8.07;;;15.90;99.90;;;;;;5029072;28;20037;-86
2023/10/01 14:26:46;;;;;;;9.23;7.28;;;15.90;99.90;;;;;;5045849;28;20150;-85
2023/10/01 14:29:12;;;;;;;10.60;8.30;;;15.90;99.90;;;;;;5046593;28;20037;-86
2023/10/01 14:31:50;;;;;;;13.00;8.05;;;15.90;99.90;;;;;;5028926;28;20392;-86
2023/10/01 14:34:20;;;;;;;12.40;8.20;;;15.90;99.90;;;;;;5027733;28;20032;-87
2023/10/01 14:36:47;;;;;;;12.07;8.75;;;15.90;99.90;;;;;;5028670;28;20090;-84